PGT3520 LTAI-LTFH
Flight info
| Callsign | PGT3520 |
|---|---|
| Flight time | 1h 2m |
| Altitude | 38000 |
| Route | HISAR1F/36R HISAR UW77 BAG/N0441F390 UW71 HAVZA |
| Aircraft | A320/M-SDE3FGHIRWY/LB1 |
Departure
| Time | 2026-04-25 20:11 |
|---|---|
| Airport | Antalya International Airport (LTAI) |
Arrival
| Time | 2026-04-25 21:14 |
|---|---|
| Airport | Samsun-Çarşamba Airport (LTFH) |
| Time | Latitude | Longitude | Altitude | Speed | Heading |
|---|---|---|---|---|---|
| 2026-04-25 19:36 | 36.91294 | 30.80070 | 201 ft | 0 kts | 97° |
| 2026-04-25 19:53 | 36.91295 | 30.80062 | 191 ft | 4 kts | 97° |
| 2026-04-25 19:53 | 36.91298 | 30.80029 | 197 ft | 4 kts | 97° |
| 2026-04-25 19:54 | 36.91301 | 30.79995 | 191 ft | 4 kts | 97° |
| 2026-04-25 19:54 | 36.91304 | 30.79961 | 197 ft | 4 kts | 97° |
| 2026-04-25 19:54 | 36.91307 | 30.79928 | 204 ft | 3 kts | 97° |
| 2026-04-25 19:54 | 36.91308 | 30.79919 | 201 ft | 4 kts | 101° |
| 2026-04-25 19:55 | 36.91333 | 30.79894 | 203 ft | 4 kts | 197° |
| 2026-04-25 19:55 | 36.91356 | 30.79902 | 204 ft | 1 kts | 187° |
| 2026-04-25 19:55 | 36.91356 | 30.79903 | 204 ft | 0 kts | 186° |
| 2026-04-25 19:57 | 36.91352 | 30.79902 | 202 ft | 3 kts | 186° |
| 2026-04-25 19:57 | 36.91315 | 30.79896 | 202 ft | 8 kts | 187° |
| 2026-04-25 19:58 | 36.91246 | 30.79886 | 191 ft | 10 kts | 187° |
| 2026-04-25 19:58 | 36.91180 | 30.79877 | 198 ft | 9 kts | 186° |
| 2026-04-25 19:58 | 36.91112 | 30.79867 | 199 ft | 12 kts | 186° |
| 2026-04-25 19:58 | 36.91007 | 30.79853 | 202 ft | 17 kts | 186° |
| 2026-04-25 19:59 | 36.90910 | 30.79815 | 194 ft | 14 kts | 238° |
| 2026-04-25 19:59 | 36.90838 | 30.79742 | 191 ft | 14 kts | 191° |
| 2026-04-25 19:59 | 36.90750 | 30.79729 | 191 ft | 12 kts | 186° |
| 2026-04-25 19:59 | 36.90669 | 30.79718 | 202 ft | 11 kts | 186° |
| 2026-04-25 20:00 | 36.90599 | 30.79709 | 199 ft | 10 kts | 186° |
| 2026-04-25 20:00 | 36.90577 | 30.79706 | 192 ft | 9 kts | 186° |
| 2026-04-25 20:00 | 36.90551 | 30.79702 | 192 ft | 0 kts | 186° |
| 2026-04-25 20:00 | 36.90539 | 30.79700 | 205 ft | 4 kts | 186° |
| 2026-04-25 20:01 | 36.90417 | 30.79718 | 196 ft | 11 kts | 136° |
| 2026-04-25 20:01 | 36.90396 | 30.79804 | 199 ft | 12 kts | 96° |
| 2026-04-25 20:01 | 36.90387 | 30.79910 | 195 ft | 17 kts | 96° |
| 2026-04-25 20:02 | 36.90371 | 30.80085 | 192 ft | 22 kts | 96° |
| 2026-04-25 20:02 | 36.90354 | 30.80277 | 200 ft | 23 kts | 96° |
| 2026-04-25 20:02 | 36.90337 | 30.80466 | 198 ft | 17 kts | 96° |
| 2026-04-25 20:02 | 36.90324 | 30.80609 | 200 ft | 17 kts | 96° |
| 2026-04-25 20:03 | 36.90287 | 30.80736 | 194 ft | 15 kts | 153° |
| 2026-04-25 20:03 | 36.90194 | 30.80775 | 197 ft | 13 kts | 178° |
| 2026-04-25 20:03 | 36.90106 | 30.80765 | 203 ft | 12 kts | 186° |
| 2026-04-25 20:03 | 36.90024 | 30.80753 | 203 ft | 11 kts | 186° |
| 2026-04-25 20:04 | 36.89951 | 30.80743 | 198 ft | 10 kts | 186° |
| 2026-04-25 20:04 | 36.89870 | 30.80733 | 192 ft | 16 kts | 186° |
| 2026-04-25 20:04 | 36.89783 | 30.80721 | 194 ft | 22 kts | 186° |
| 2026-04-25 20:04 | 36.89576 | 30.80693 | 191 ft | 24 kts | 186° |
| 2026-04-25 20:05 | 36.89422 | 30.80671 | 195 ft | 18 kts | 186° |
| 2026-04-25 20:05 | 36.89320 | 30.80657 | 192 ft | 10 kts | 186° |
| 2026-04-25 20:05 | 36.89275 | 30.80651 | 196 ft | 9 kts | 186° |
| 2026-04-25 20:05 | 36.89195 | 30.80640 | 192 ft | 8 kts | 186° |
| 2026-04-25 20:06 | 36.89161 | 30.80636 | 204 ft | 7 kts | 186° |
| 2026-04-25 20:06 | 36.89115 | 30.80629 | 192 ft | 6 kts | 186° |
| 2026-04-25 20:06 | 36.89054 | 30.80621 | 192 ft | 13 kts | 186° |
| 2026-04-25 20:06 | 36.88933 | 30.80604 | 195 ft | 20 kts | 186° |
| 2026-04-25 20:07 | 36.88794 | 30.80584 | 201 ft | 20 kts | 187° |
| 2026-04-25 20:07 | 36.88654 | 30.80565 | 193 ft | 21 kts | 186° |
| 2026-04-25 20:07 | 36.88518 | 30.80546 | 200 ft | 17 kts | 186° |
| 2026-04-25 20:07 | 36.88409 | 30.80530 | 203 ft | 14 kts | 186° |
| 2026-04-25 20:08 | 36.88316 | 30.80518 | 196 ft | 13 kts | 186° |
| 2026-04-25 20:08 | 36.88211 | 30.80505 | 207 ft | 11 kts | 186° |
| 2026-04-25 20:08 | 36.88198 | 30.80503 | 198 ft | 0 kts | 186° |
| 2026-04-25 20:09 | 36.88197 | 30.80503 | 192 ft | 2 kts | 186° |
| 2026-04-25 20:09 | 36.88166 | 30.80503 | 206 ft | 7 kts | 169° |
| 2026-04-25 20:09 | 36.88135 | 30.80590 | 196 ft | 17 kts | 96° |
| 2026-04-25 20:10 | 36.88139 | 30.80722 | 201 ft | 11 kts | 50° |
| 2026-04-25 20:10 | 36.88173 | 30.80737 | 195 ft | 0 kts | 4° |
| 2026-04-25 20:10 | 36.88180 | 30.80737 | 197 ft | 10 kts | 4° |
| 2026-04-25 20:10 | 36.88527 | 30.80788 | 202 ft | 88 kts | 7° |
| 2026-04-25 20:11 | 36.89344 | 30.80896 | 192 ft | 146 kts | 6° |
| 2026-04-25 20:11 | 36.90491 | 30.81067 | 392 ft | 174 kts | 6° |
| 2026-04-25 20:11 | 36.91660 | 30.81367 | 1204 ft | 171 kts | 17° |
| 2026-04-25 20:11 | 36.92777 | 30.81898 | 1935 ft | 175 kts | 20° |
| 2026-04-25 20:12 | 36.93980 | 30.82487 | 2338 ft | 196 kts | 20° |
| 2026-04-25 20:12 | 36.95316 | 30.83143 | 2715 ft | 215 kts | 21° |
| 2026-04-25 20:12 | 36.96732 | 30.83844 | 3460 ft | 220 kts | 21° |
| 2026-04-25 20:12 | 36.97662 | 30.84307 | 4068 ft | 220 kts | 21° |
| 2026-04-25 20:13 | 36.99602 | 30.85272 | 5151 ft | 230 kts | 22° |
| 2026-04-25 20:13 | 37.01149 | 30.86030 | 5588 ft | 254 kts | 21° |
| 2026-04-25 20:13 | 37.02868 | 30.86864 | 6237 ft | 269 kts | 21° |
| 2026-04-25 20:13 | 37.04628 | 30.87715 | 7063 ft | 276 kts | 21° |
| 2026-04-25 20:14 | 37.06392 | 30.88492 | 7838 ft | 283 kts | 13° |
| 2026-04-25 20:14 | 37.08426 | 30.88705 | 8716 ft | 288 kts | 354° |
| 2026-04-25 20:14 | 37.10420 | 30.88270 | 9593 ft | 292 kts | 347° |
| 2026-04-25 20:14 | 37.12439 | 30.87752 | 10329 ft | 303 kts | 347° |
| 2026-04-25 20:15 | 37.14579 | 30.87208 | 10650 ft | 326 kts | 347° |
| 2026-04-25 20:15 | 37.16866 | 30.86633 | 11183 ft | 340 kts | 348° |
| 2026-04-25 20:15 | 37.19183 | 30.86052 | 11932 ft | 346 kts | 348° |
| 2026-04-25 20:15 | 37.21565 | 30.85457 | 12742 ft | 350 kts | 348° |
| 2026-04-25 20:16 | 37.23969 | 30.84857 | 13526 ft | 354 kts | 348° |
| 2026-04-25 20:16 | 37.26408 | 30.84248 | 14246 ft | 359 kts | 349° |
| 2026-04-25 20:16 | 37.28912 | 30.84034 | 14873 ft | 364 kts | 5° |
| 2026-04-25 20:16 | 37.31377 | 30.84771 | 15507 ft | 369 kts | 23° |
| 2026-04-25 20:17 | 37.33587 | 30.86439 | 16152 ft | 372 kts | 41° |
| 2026-04-25 20:17 | 37.35291 | 30.88877 | 16806 ft | 373 kts | 60° |
| 2026-04-25 20:17 | 37.36399 | 30.91825 | 17454 ft | 375 kts | 70° |
| 2026-04-25 20:17 | 37.37390 | 30.94882 | 18129 ft | 379 kts | 69° |
| 2026-04-25 20:18 | 37.38682 | 30.97761 | 18686 ft | 386 kts | 55° |
| 2026-04-25 20:18 | 37.40531 | 31.00242 | 19221 ft | 392 kts | 40° |
| 2026-04-25 20:18 | 37.42837 | 31.02116 | 19763 ft | 397 kts | 25° |
| 2026-04-25 20:18 | 37.45454 | 31.03240 | 20360 ft | 400 kts | 11° |
| 2026-04-25 20:19 | 37.48228 | 31.03695 | 20922 ft | 402 kts | 5° |
| 2026-04-25 20:19 | 37.51022 | 31.04075 | 21464 ft | 405 kts | 5° |
| 2026-04-25 20:19 | 37.53833 | 31.04464 | 22018 ft | 409 kts | 5° |
| 2026-04-25 20:19 | 37.56669 | 31.04899 | 22535 ft | 413 kts | 9° |
| 2026-04-25 20:20 | 37.59496 | 31.05635 | 23063 ft | 417 kts | 11° |
| 2026-04-25 20:20 | 37.62350 | 31.06400 | 23567 ft | 421 kts | 11° |
| 2026-04-25 20:20 | 37.65220 | 31.07167 | 24039 ft | 422 kts | 11° |
| 2026-04-25 20:20 | 37.68103 | 31.07937 | 24527 ft | 424 kts | 11° |
| 2026-04-25 20:21 | 37.70991 | 31.08712 | 24979 ft | 426 kts | 11° |
| 2026-04-25 20:21 | 37.73880 | 31.09605 | 25394 ft | 428 kts | 17° |
| 2026-04-25 20:21 | 37.76643 | 31.11061 | 25825 ft | 431 kts | 27° |
| 2026-04-25 20:21 | 37.79180 | 31.13104 | 26251 ft | 433 kts | 38° |
| 2026-04-25 20:22 | 37.81416 | 31.15653 | 26675 ft | 435 kts | 45° |
| 2026-04-25 20:22 | 37.82823 | 31.17449 | 26979 ft | 435 kts | 45° |
| 2026-04-25 20:22 | 37.85690 | 31.21092 | 27551 ft | 438 kts | 45° |
| 2026-04-25 20:22 | 37.87851 | 31.23831 | 27967 ft | 440 kts | 45° |
| 2026-04-25 20:23 | 37.90022 | 31.26583 | 28310 ft | 444 kts | 45° |
| 2026-04-25 20:23 | 37.92214 | 31.29374 | 28651 ft | 447 kts | 45° |
| 2026-04-25 20:23 | 37.94384 | 31.32142 | 29010 ft | 449 kts | 45° |
| 2026-04-25 20:23 | 37.96597 | 31.34964 | 29418 ft | 450 kts | 46° |
| 2026-04-25 20:24 | 37.98808 | 31.37787 | 29896 ft | 451 kts | 46° |
| 2026-04-25 20:24 | 38.01020 | 31.40611 | 30267 ft | 452 kts | 46° |
| 2026-04-25 20:24 | 38.03238 | 31.43452 | 30563 ft | 454 kts | 46° |
| 2026-04-25 20:24 | 38.05464 | 31.46320 | 30843 ft | 456 kts | 46° |
| 2026-04-25 20:25 | 38.07693 | 31.49199 | 31117 ft | 458 kts | 46° |
| 2026-04-25 20:25 | 38.09934 | 31.52100 | 31391 ft | 461 kts | 46° |
| 2026-04-25 20:25 | 38.12189 | 31.55019 | 31661 ft | 463 kts | 46° |
| 2026-04-25 20:25 | 38.14427 | 31.57920 | 32051 ft | 462 kts | 46° |
| 2026-04-25 20:26 | 38.16684 | 31.60847 | 32437 ft | 461 kts | 46° |
| 2026-04-25 20:26 | 38.18939 | 31.63771 | 32812 ft | 461 kts | 46° |
| 2026-04-25 20:26 | 38.21184 | 31.66677 | 33174 ft | 461 kts | 46° |
| 2026-04-25 20:26 | 38.23399 | 31.69549 | 33545 ft | 460 kts | 46° |
| 2026-04-25 20:27 | 38.25639 | 31.72462 | 33904 ft | 460 kts | 46° |
| 2026-04-25 20:27 | 38.27876 | 31.75371 | 34241 ft | 460 kts | 46° |
| 2026-04-25 20:27 | 38.30119 | 31.78287 | 34547 ft | 460 kts | 46° |
| 2026-04-25 20:27 | 38.32354 | 31.81196 | 34826 ft | 460 kts | 46° |
| 2026-04-25 20:28 | 38.34601 | 31.84121 | 35079 ft | 461 kts | 46° |
| 2026-04-25 20:28 | 38.36840 | 31.87047 | 35368 ft | 461 kts | 46° |
| 2026-04-25 20:28 | 38.39082 | 31.89977 | 35641 ft | 461 kts | 46° |
| 2026-04-25 20:28 | 38.41307 | 31.92883 | 35940 ft | 460 kts | 46° |
| 2026-04-25 20:29 | 38.43548 | 31.95816 | 36214 ft | 460 kts | 46° |
| 2026-04-25 20:29 | 38.45787 | 31.98744 | 36522 ft | 459 kts | 46° |
| 2026-04-25 20:29 | 38.48019 | 32.01670 | 36794 ft | 459 kts | 46° |
| 2026-04-25 20:29 | 38.50214 | 32.04555 | 37019 ft | 459 kts | 46° |
| 2026-04-25 20:30 | 38.54697 | 32.10463 | 37085 ft | 460 kts | 46° |
| 2026-04-25 20:30 | 38.59123 | 32.16300 | 37081 ft | 459 kts | 46° |
| 2026-04-25 20:31 | 38.63568 | 32.22169 | 37078 ft | 459 kts | 46° |
| 2026-04-25 20:31 | 38.68023 | 32.28044 | 37076 ft | 459 kts | 46° |
| 2026-04-25 20:32 | 38.72462 | 32.33937 | 37079 ft | 459 kts | 46° |
| 2026-04-25 20:32 | 38.76892 | 32.39833 | 37076 ft | 460 kts | 46° |
| 2026-04-25 20:33 | 38.81341 | 32.45737 | 37077 ft | 460 kts | 46° |
| 2026-04-25 20:33 | 38.84312 | 32.49685 | 37076 ft | 459 kts | 46° |
| 2026-04-25 20:34 | 38.90211 | 32.57554 | 37077 ft | 459 kts | 46° |
| 2026-04-25 20:34 | 38.94636 | 32.63475 | 37073 ft | 460 kts | 46° |
| 2026-04-25 20:35 | 38.99024 | 32.69363 | 37076 ft | 460 kts | 46° |
| 2026-04-25 20:35 | 39.03448 | 32.75305 | 37074 ft | 460 kts | 46° |
| 2026-04-25 20:36 | 39.07878 | 32.81264 | 37074 ft | 460 kts | 46° |
| 2026-04-25 20:36 | 39.12178 | 32.87062 | 37079 ft | 459 kts | 46° |
| 2026-04-25 20:37 | 39.16629 | 32.93074 | 37079 ft | 460 kts | 46° |
| 2026-04-25 20:37 | 39.21050 | 32.99049 | 37076 ft | 461 kts | 46° |
| 2026-04-25 20:38 | 39.25475 | 33.05039 | 37073 ft | 461 kts | 46° |
| 2026-04-25 20:38 | 39.29909 | 33.11058 | 37082 ft | 460 kts | 46° |
| 2026-04-25 20:39 | 39.34290 | 33.17029 | 37065 ft | 461 kts | 46° |
| 2026-04-25 20:39 | 39.37250 | 33.21074 | 37078 ft | 462 kts | 46° |
| 2026-04-25 20:40 | 39.43142 | 33.29117 | 37074 ft | 462 kts | 46° |
| 2026-04-25 20:40 | 39.47560 | 33.35162 | 37080 ft | 462 kts | 46° |
| 2026-04-25 20:41 | 39.51972 | 33.41223 | 37076 ft | 462 kts | 46° |
| 2026-04-25 20:41 | 39.56368 | 33.47268 | 37082 ft | 462 kts | 46° |
| 2026-04-25 20:42 | 39.60037 | 33.52322 | 37080 ft | 462 kts | 46° |
| 2026-04-25 20:42 | 39.64453 | 33.58412 | 37081 ft | 462 kts | 46° |
| 2026-04-25 20:43 | 39.68861 | 33.64505 | 37081 ft | 462 kts | 46° |
| 2026-04-25 20:43 | 39.73251 | 33.70580 | 37075 ft | 463 kts | 46° |
| 2026-04-25 20:44 | 39.77671 | 33.76713 | 37078 ft | 464 kts | 46° |
| 2026-04-25 20:44 | 39.82067 | 33.82816 | 37077 ft | 464 kts | 46° |
| 2026-04-25 20:45 | 39.86485 | 33.88977 | 37080 ft | 464 kts | 46° |
| 2026-04-25 20:45 | 39.90889 | 33.95133 | 37080 ft | 464 kts | 46° |
| 2026-04-25 20:46 | 39.95206 | 34.01180 | 37076 ft | 464 kts | 46° |
| 2026-04-25 20:46 | 39.99591 | 34.07326 | 37069 ft | 463 kts | 46° |
| 2026-04-25 20:47 | 40.03990 | 34.13506 | 37080 ft | 463 kts | 46° |
| 2026-04-25 20:47 | 40.08292 | 34.19573 | 37078 ft | 463 kts | 46° |
| 2026-04-25 20:48 | 40.12741 | 34.25843 | 37068 ft | 463 kts | 46° |
| 2026-04-25 20:48 | 40.17122 | 34.32026 | 37075 ft | 463 kts | 46° |
| 2026-04-25 20:49 | 40.21481 | 34.38198 | 37073 ft | 463 kts | 46° |
| 2026-04-25 20:49 | 40.25853 | 34.44407 | 37074 ft | 463 kts | 46° |
| 2026-04-25 20:50 | 40.30212 | 34.50610 | 37078 ft | 462 kts | 46° |
| 2026-04-25 20:50 | 40.32376 | 34.53692 | 36815 ft | 462 kts | 46° |
| 2026-04-25 20:50 | 40.34552 | 34.56792 | 36035 ft | 465 kts | 46° |
| 2026-04-25 20:51 | 40.36760 | 34.59940 | 35187 ft | 469 kts | 46° |
| 2026-04-25 20:51 | 40.38987 | 34.63119 | 34296 ft | 474 kts | 47° |
| 2026-04-25 20:51 | 40.41210 | 34.66300 | 33729 ft | 470 kts | 47° |
| 2026-04-25 20:51 | 40.43389 | 34.69426 | 33115 ft | 467 kts | 47° |
| 2026-04-25 20:52 | 40.45575 | 34.72562 | 32503 ft | 463 kts | 47° |
| 2026-04-25 20:52 | 40.47036 | 34.74660 | 32098 ft | 461 kts | 47° |
| 2026-04-25 20:52 | 40.49922 | 34.78808 | 31327 ft | 457 kts | 47° |
| 2026-04-25 20:52 | 40.52065 | 34.81891 | 30726 ft | 454 kts | 47° |
| 2026-04-25 20:53 | 40.54189 | 34.84947 | 30140 ft | 452 kts | 47° |
| 2026-04-25 20:53 | 40.56300 | 34.87982 | 29529 ft | 448 kts | 47° |
| 2026-04-25 20:53 | 40.58402 | 34.91003 | 28956 ft | 443 kts | 47° |
| 2026-04-25 20:53 | 40.60470 | 34.93982 | 28414 ft | 438 kts | 47° |
| 2026-04-25 20:54 | 40.62497 | 34.96915 | 27879 ft | 433 kts | 47° |
| 2026-04-25 20:54 | 40.64514 | 34.99838 | 27359 ft | 429 kts | 47° |
| 2026-04-25 20:54 | 40.66516 | 35.02738 | 26861 ft | 424 kts | 47° |
| 2026-04-25 20:54 | 40.68492 | 35.05599 | 26353 ft | 419 kts | 47° |
| 2026-04-25 20:55 | 40.70443 | 35.08428 | 25862 ft | 414 kts | 47° |
| 2026-04-25 20:55 | 40.72349 | 35.11194 | 25375 ft | 410 kts | 47° |
| 2026-04-25 20:55 | 40.74249 | 35.13960 | 25091 ft | 401 kts | 47° |
| 2026-04-25 20:55 | 40.76112 | 35.16674 | 24678 ft | 398 kts | 47° |
| 2026-04-25 20:56 | 40.77984 | 35.19401 | 23829 ft | 401 kts | 47° |
| 2026-04-25 20:56 | 40.79833 | 35.22093 | 23351 ft | 388 kts | 47° |
| 2026-04-25 20:56 | 40.81620 | 35.24695 | 22856 ft | 377 kts | 47° |
| 2026-04-25 20:56 | 40.83363 | 35.27239 | 22378 ft | 368 kts | 47° |
| 2026-04-25 20:57 | 40.85068 | 35.29730 | 21912 ft | 362 kts | 47° |
| 2026-04-25 20:57 | 40.86761 | 35.32203 | 21444 ft | 361 kts | 47° |
| 2026-04-25 20:57 | 40.88414 | 35.34624 | 20980 ft | 360 kts | 47° |
| 2026-04-25 20:57 | 40.90111 | 35.37113 | 20508 ft | 359 kts | 47° |
| 2026-04-25 20:58 | 40.91760 | 35.39530 | 20044 ft | 358 kts | 47° |
| 2026-04-25 20:58 | 40.93415 | 35.41953 | 19583 ft | 357 kts | 47° |
| 2026-04-25 20:58 | 40.94960 | 35.44558 | 19123 ft | 356 kts | 58° |
| 2026-04-25 20:58 | 40.96090 | 35.47475 | 18684 ft | 355 kts | 69° |
| 2026-04-25 20:59 | 40.96952 | 35.50515 | 18228 ft | 354 kts | 70° |
| 2026-04-25 20:59 | 40.97817 | 35.53552 | 17764 ft | 352 kts | 70° |
| 2026-04-25 20:59 | 40.98687 | 35.56583 | 17331 ft | 349 kts | 69° |
| 2026-04-25 20:59 | 40.99551 | 35.59588 | 16904 ft | 347 kts | 69° |
| 2026-04-25 21:00 | 41.00401 | 35.62549 | 16490 ft | 346 kts | 70° |
| 2026-04-25 21:00 | 41.00684 | 35.63534 | 16352 ft | 345 kts | 70° |
| 2026-04-25 21:00 | 41.02927 | 35.71361 | 15251 ft | 343 kts | 70° |
| 2026-04-25 21:01 | 41.03785 | 35.74293 | 14837 ft | 342 kts | 69° |
| 2026-04-25 21:01 | 41.04657 | 35.77239 | 14417 ft | 342 kts | 69° |
| 2026-04-25 21:01 | 41.05529 | 35.80181 | 14005 ft | 342 kts | 69° |
| 2026-04-25 21:01 | 41.06400 | 35.83132 | 13553 ft | 342 kts | 69° |
| 2026-04-25 21:02 | 41.07265 | 35.86076 | 13118 ft | 341 kts | 69° |
| 2026-04-25 21:02 | 41.08121 | 35.88990 | 12691 ft | 338 kts | 69° |
| 2026-04-25 21:02 | 41.09085 | 35.91789 | 12283 ft | 337 kts | 59° |
| 2026-04-25 21:02 | 41.10482 | 35.94266 | 11860 ft | 336 kts | 46° |
| 2026-04-25 21:03 | 41.12192 | 35.96358 | 11427 ft | 334 kts | 41° |
| 2026-04-25 21:03 | 41.13913 | 35.98401 | 10992 ft | 333 kts | 41° |
| 2026-04-25 21:03 | 41.15650 | 36.00474 | 10558 ft | 332 kts | 41° |
| 2026-04-25 21:03 | 41.17368 | 36.02533 | 10178 ft | 329 kts | 42° |
| 2026-04-25 21:04 | 41.19033 | 36.04537 | 10058 ft | 317 kts | 42° |
| 2026-04-25 21:04 | 41.20643 | 36.06476 | 9750 ft | 313 kts | 42° |
| 2026-04-25 21:04 | 41.22252 | 36.08411 | 9227 ft | 315 kts | 41° |
| 2026-04-25 21:04 | 41.23883 | 36.10366 | 8804 ft | 312 kts | 41° |
| 2026-04-25 21:05 | 41.25504 | 36.12308 | 8390 ft | 310 kts | 41° |
| 2026-04-25 21:05 | 41.27092 | 36.14216 | 8003 ft | 307 kts | 41° |
| 2026-04-25 21:05 | 41.28637 | 36.16077 | 7573 ft | 297 kts | 41° |
| 2026-04-25 21:05 | 41.30165 | 36.17919 | 7147 ft | 288 kts | 41° |
| 2026-04-25 21:06 | 41.31610 | 36.19662 | 6741 ft | 277 kts | 41° |
| 2026-04-25 21:06 | 41.33010 | 36.21352 | 6324 ft | 266 kts | 41° |
| 2026-04-25 21:06 | 41.34361 | 36.22986 | 5886 ft | 257 kts | 42° |
| 2026-04-25 21:06 | 41.35239 | 36.24070 | 5595 ft | 252 kts | 43° |
| 2026-04-25 21:07 | 41.36898 | 36.26144 | 5036 ft | 244 kts | 43° |
| 2026-04-25 21:07 | 41.38122 | 36.27681 | 4624 ft | 237 kts | 44° |
| 2026-04-25 21:07 | 41.39302 | 36.29162 | 4270 ft | 229 kts | 45° |
| 2026-04-25 21:07 | 41.40439 | 36.30591 | 3964 ft | 219 kts | 45° |
| 2026-04-25 21:08 | 41.41525 | 36.31955 | 3682 ft | 211 kts | 46° |
| 2026-04-25 21:08 | 41.42533 | 36.33296 | 3480 ft | 201 kts | 57° |
| 2026-04-25 21:08 | 41.42864 | 36.35004 | 3276 ft | 189 kts | 103° |
| 2026-04-25 21:08 | 41.42219 | 36.36437 | 3095 ft | 182 kts | 144° |
| 2026-04-25 21:09 | 41.39889 | 36.37689 | 3008 ft | 182 kts | 152° |
| 2026-04-25 21:09 | 41.38789 | 36.38527 | 3005 ft | 186 kts | 145° |
| 2026-04-25 21:09 | 41.37764 | 36.39610 | 3001 ft | 186 kts | 136° |
| 2026-04-25 21:10 | 41.36829 | 36.40810 | 2924 ft | 187 kts | 134° |
| 2026-04-25 21:10 | 41.35908 | 36.42072 | 2725 ft | 187 kts | 133° |
| 2026-04-25 21:10 | 41.35020 | 36.43312 | 2496 ft | 188 kts | 133° |
| 2026-04-25 21:10 | 41.34120 | 36.44572 | 2235 ft | 187 kts | 133° |
| 2026-04-25 21:11 | 41.33237 | 36.45810 | 1995 ft | 184 kts | 133° |
| 2026-04-25 21:11 | 41.32359 | 36.47040 | 1739 ft | 184 kts | 134° |
| 2026-04-25 21:11 | 41.31489 | 36.48259 | 1508 ft | 170 kts | 134° |
| 2026-04-25 21:11 | 41.30709 | 36.49351 | 1280 ft | 156 kts | 134° |
| 2026-04-25 21:12 | 41.29989 | 36.50360 | 1088 ft | 144 kts | 134° |
| 2026-04-25 21:12 | 41.29323 | 36.51292 | 890 ft | 138 kts | 132° |
| 2026-04-25 21:12 | 41.28665 | 36.52211 | 697 ft | 135 kts | 133° |
| 2026-04-25 21:12 | 41.28448 | 36.52516 | 647 ft | 135 kts | 133° |
| 2026-04-25 21:13 | 41.27387 | 36.53999 | 361 ft | 134 kts | 134° |
| 2026-04-25 21:13 | 41.26753 | 36.54905 | 140 ft | 133 kts | 134° |
| 2026-04-25 21:13 | 41.26122 | 36.55760 | 33 ft | 128 kts | 134° |
| 2026-04-25 21:13 | 41.25606 | 36.56492 | 10 ft | 85 kts | 132° |
| 2026-04-25 21:14 | 41.25283 | 36.56935 | 9 ft | 51 kts | 133° |
| 2026-04-25 21:14 | 41.25071 | 36.57231 | 12 ft | 38 kts | 134° |
| 2026-04-25 21:14 | 41.24893 | 36.57477 | 12 ft | 36 kts | 134° |
| 2026-04-25 21:14 | 41.24723 | 36.57716 | 11 ft | 35 kts | 133° |
| 2026-04-25 21:15 | 41.24579 | 36.57896 | 12 ft | 17 kts | 160° |
| 2026-04-25 21:15 | 41.24533 | 36.57961 | 12 ft | 10 kts | 29° |
| 2026-04-25 21:15 | 41.24578 | 36.57919 | 12 ft | 15 kts | 311° |
| 2026-04-25 21:15 | 41.24726 | 36.57712 | 11 ft | 28 kts | 314° |
| 2026-04-25 21:16 | 41.24820 | 36.57581 | 12 ft | 29 kts | 314° |
| 2026-04-25 21:16 | 41.24957 | 36.57390 | 12 ft | 31 kts | 314° |
| 2026-04-25 21:16 | 41.25110 | 36.57179 | 12 ft | 32 kts | 314° |
| 2026-04-25 21:16 | 41.25271 | 36.56954 | 10 ft | 34 kts | 314° |
| 2026-04-25 21:17 | 41.25431 | 36.56731 | 9 ft | 34 kts | 313° |
| 2026-04-25 21:17 | 41.25592 | 36.56506 | 10 ft | 32 kts | 314° |
| 2026-04-25 21:17 | 41.25748 | 36.56289 | 10 ft | 34 kts | 314° |
| 2026-04-25 21:17 | 41.25910 | 36.56063 | 27 ft | 34 kts | 314° |
| 2026-04-25 21:18 | 41.26011 | 36.55912 | 29 ft | 16 kts | 297° |
| 2026-04-25 21:18 | 41.25982 | 36.55799 | 28 ft | 12 kts | 226° |
| 2026-04-25 21:18 | 41.25922 | 36.55721 | 29 ft | 10 kts | 223° |
| 2026-04-25 21:18 | 41.25878 | 36.55645 | 29 ft | 8 kts | 277° |
| 2026-04-25 21:19 | 41.25918 | 36.55573 | 31 ft | 9 kts | 314° |
| 2026-04-25 21:19 | 41.25913 | 36.55486 | 28 ft | 7 kts | 223° |